sensor_id;sensor_type;location;lat;lon;timestamp;pressure;altitude;pressure_sealevel;temperature;humidity
18850;BME280;4989;48.772;9.154;2023-02-28T00:02:00;98691.69;;;4.62;63.76
18850;BME280;4989;48.772;9.154;2023-02-28T00:07:02;98688.34;;;5.02;68.03
18850;BME280;4989;48.772;9.154;2023-02-28T00:12:04;98685.72;;;4.75;74.44
18850;BME280;4989;48.772;9.154;2023-02-28T00:17:12;98687.06;;;4.62;74.06
18850;BME280;4989;48.772;9.154;2023-02-28T00:22:18;98686.09;;;4.47;66.97
18850;BME280;4989;48.772;9.154;2023-02-28T00:27:21;98688.88;;;4.28;nan
18850;BME280;4989;48.772;9.154;2023-02-28T00:32:23;98688.56;;;4.06;61.38
18850;BME280;4989;48.772;9.154;2023-02-28T00:37:26;98694.41;;;3.89;72.09
18850;BME280;4989;48.772;9.154;2023-02-28T00:42:28;98692.22;;;3.95;72.54
18850;BME280;4989;48.772;9.154;2023-02-28T00:47:31;98695.78;;;4.02;69.45
18850;BME280;4989;48.772;9.154;2023-02-28T00:52:34;98690.91;;;4.34;77.05
18850;BME280;4989;48.772;9.154;2023-02-28T00:57:36;98684.72;;;4.07;66.98
18850;BME280;4989;48.772;9.154;2023-02-28T01:02:38;98688.78;;;4.21;67.75
18850;BME280;4989;48.772;9.154;2023-02-28T01:07:42;98687.13;;;4.12;78.33
18850;BME280;4989;48.772;9.154;2023-02-28T01:12:44;98682.63;;;4.20;70.43
18850;BME280;4989;48.772;9.154;2023-02-28T01:17:46;98678.91;;;4.05;62.45
18850;BME280;4989;48.772;9.154;2023-02-28T01:22:49;98680.91;;;4.08;71.92
18850;BME280;4989;48.772;9.154;2023-02-28T01:27:51;98677.66;;;4.22;74.77
18850;BME280;4989;48.772;9.154;2023-02-28T01:32:54;98681.41;;;3.91;66.99
18850;BME280;4989;48.772;9.154;2023-02-28T01:37:56;98672.78;;;4.31;81.91
18850;BME280;4989;48.772;9.154;2023-02-28T01:43:28;98680.19;;;4.11;85.23
18850;BME280;4989;48.772;9.154;2023-02-28T01:48:35;98683.06;;;3.99;72.49
18850;BME280;4989;48.772;9.154;2023-02-28T01:53:47;98673.38;;;4.18;77.20
18850;BME280;4989;48.772;9.154;2023-02-28T01:58:53;98671.03;;;4.16;67.92
18850;BME280;4989;48.772;9.154;2023-02-28T02:04:02;98662.72;;;4.25;71.28
18850;BME280;4989;48.772;9.154;2023-02-28T02:09:04;98654.72;;;4.05;80.60
18850;BME280;4989;48.772;9.154;2023-02-28T02:19:51;98644.78;;;3.83;77.19
18850;BME280;4989;48.772;9.154;2023-02-28T02:25:13;98637.19;;;3.65;78.08
18850;BME280;4989;48.772;9.154;2023-02-28T02:41:54;98632.28;;;3.94;79.57
18850;BME280;4989;48.772;9.154;2023-02-28T02:47:11;98636.31;;;4.07;77.18
18850;BME280;4989;48.772;9.154;2023-02-28T02:52:22;98639.13;;;4.15;79.53
18850;BME280;4989;48.772;9.154;2023-02-28T02:57:43;98637.22;;;4.15;78.24
18850;BME280;4989;48.772;9.154;2023-02-28T03:02:52;98644.91;;;4.17;70.65
18850;BME280;4989;48.772;9.154;2023-02-28T03:07:56;98637.31;;;3.73;74.91
18850;BME280;4989;48.772;9.154;2023-02-28T03:19:29;98640.53;;;3.82;73.59
18850;BME280;4989;48.772;9.154;2023-02-28T03:25:07;98639.88;;;3.88;73.17
18850;BME280;4989;48.772;9.154;2023-02-28T03:35:34;98640.03;;;3.99;74.44
18850;BME280;4989;48.772;9.154;2023-02-28T03:40:38;98640.16;;;4.06;75.35
18850;BME280;4989;48.772;9.154;2023-02-28T03:45:45;98634.09;;;4.13;74.72
18850;BME280;4989;48.772;9.154;2023-02-28T03:50:55;98636.22;;;4.00;70.54
18850;BME280;4989;48.772;9.154;2023-02-28T03:56:23;98639.78;;;4.08;71.17
18850;BME280;4989;48.772;9.154;2023-02-28T04:01:39;98640.56;;;4.35;75.91
18850;BME280;4989;48.772;9.154;2023-02-28T04:06:44;98638.81;;;4.20;74.20
18850;BME280;4989;48.772;9.154;2023-02-28T04:11:51;98646.84;;;3.93;69.55
18850;BME280;4989;48.772;9.154;2023-02-28T04:16:54;98638.91;;;4.27;83.97
18850;BME280;4989;48.772;9.154;2023-02-28T04:21:56;98644.03;;;4.09;72.74
18850;BME280;4989;48.772;9.154;2023-02-28T04:26:58;98641.69;;;4.07;74.01
18850;BME280;4989;48.772;9.154;2023-02-28T04:32:02;98639.66;;;4.24;80.11
18850;BME280;4989;48.772;9.154;2023-02-28T04:37:05;98644.59;;;4.48;73.17
18850;BME280;4989;48.772;9.154;2023-02-28T04:42:15;98631.41;;;4.40;73.19
18850;BME280;4989;48.772;9.154;2023-02-28T04:47:17;98628.44;;;4.48;72.37
18850;BME280;4989;48.772;9.154;2023-02-28T04:52:19;98630.63;;;4.39;77.49
18850;BME280;4989;48.772;9.154;2023-02-28T04:57:22;98640.72;;;4.19;71.85
18850;BME280;4989;48.772;9.154;2023-02-28T05:02:24;98636.63;;;4.29;75.32
18850;BME280;4989;48.772;9.154;2023-02-28T05:07:26;98633.69;;;4.38;69.33
18850;BME280;4989;48.772;9.154;2023-02-28T05:12:31;98640.59;;;4.39;76.58
18850;BME280;4989;48.772;9.154;2023-02-28T05:17:34;98639.13;;;4.15;77.42
18850;BME280;4989;48.772;9.154;2023-02-28T05:22:39;98638.28;;;4.37;77.94
18850;BME280;4989;48.772;9.154;2023-02-28T05:27:42;98640.66;;;4.42;72.12
18850;BME280;4989;48.772;9.154;2023-02-28T05:32:51;98637.22;;;4.15;76.21
18850;BME280;4989;48.772;9.154;2023-02-28T05:37:53;98645.81;;;4.24;76.80
18850;BME280;4989;48.772;9.154;2023-02-28T05:42:55;98647.69;;;4.50;78.11
18850;BME280;4989;48.772;9.154;2023-02-28T05:47:57;98644.63;;;3.99;71.93
18850;BME280;4989;48.772;9.154;2023-02-28T05:52:59;98653.41;;;4.19;72.21
18850;BME280;4989;48.772;9.154;2023-02-28T05:58:02;98652.41;;;4.57;87.94
18850;BME280;4989;48.772;9.154;2023-02-28T06:03:04;98652.94;;;4.70;79.07
18850;BME280;4989;48.772;9.154;2023-02-28T06:08:06;98655.22;;;4.68;74.93
18850;BME280;4989;48.772;9.154;2023-02-28T06:13:09;98660.91;;;4.63;74.24
18850;BME280;4989;48.772;9.154;2023-02-28T06:18:11;98655.53;;;4.63;76.35
18850;BME280;4989;48.772;9.154;2023-02-28T06:23:13;98661.63;;;4.29;74.44
18850;BME280;4989;48.772;9.154;2023-02-28T06:28:16;98671.25;;;4.30;72.71
18850;BME280;4989;48.772;9.154;2023-02-28T06:33:18;98673.34;;;4.44;76.23
18850;BME280;4989;48.772;9.154;2023-02-28T06:38:21;98679.31;;;4.57;81.60
18850;BME280;4989;48.772;9.154;2023-02-28T06:43:24;98679.59;;;4.48;78.53
18850;BME280;4989;48.772;9.154;2023-02-28T06:48:27;98680.19;;;4.65;85.00
18850;BME280;4989;48.772;9.154;2023-02-28T06:53:29;98680.88;;;4.58;73.55
18850;BME280;4989;48.772;9.154;2023-02-28T06:58:32;98685.38;;;4.50;83.02
18850;BME280;4989;48.772;9.154;2023-02-28T07:03:36;98690.81;;;4.54;71.85
18850;BME280;4989;48.772;9.154;2023-02-28T07:08:38;98685.63;;;4.98;80.70
18850;BME280;4989;48.772;9.154;2023-02-28T07:13:43;98700.72;;;5.07;73.29
18850;BME280;4989;48.772;9.154;2023-02-28T07:18:45;98702.19;;;5.00;74.36
18850;BME280;4989;48.772;9.154;2023-02-28T07:23:48;98695.69;;;4.75;73.32
18850;BME280;4989;48.772;9.154;2023-02-28T07:28:51;98699.34;;;4.90;70.00
18850;BME280;4989;48.772;9.154;2023-02-28T07:33:53;98698.53;;;5.16;68.99
18850;BME280;4989;48.772;9.154;2023-02-28T07:38:55;98693.06;;;5.09;65.74
18850;BME280;4989;48.772;9.154;2023-02-28T07:43:57;98708.50;;;5.12;81.68
18850;BME280;4989;48.772;9.154;2023-02-28T07:49:01;98701.09;;;5.39;74.55
18850;BME280;4989;48.772;9.154;2023-02-28T07:54:05;98710.59;;;5.29;70.17
18850;BME280;4989;48.772;9.154;2023-02-28T07:59:07;98708.00;;;5.36;69.18
18850;BME280;4989;48.772;9.154;2023-02-28T08:04:09;98719.41;;;5.60;70.67
18850;BME280;4989;48.772;9.154;2023-02-28T08:09:11;98720.13;;;5.53;74.20
18850;BME280;4989;48.772;9.154;2023-02-28T08:14:13;98728.97;;;5.54;65.28
18850;BME280;4989;48.772;9.154;2023-02-28T08:19:16;98714.88;;;5.67;72.76
18850;BME280;4989;48.772;9.154;2023-02-28T08:24:18;98719.53;;;5.33;73.59
18850;BME280;4989;48.772;9.154;2023-02-28T08:29:20;98719.59;;;5.40;62.78
18850;BME280;4989;48.772;9.154;2023-02-28T08:34:22;98720.84;;;5.50;73.40
18850;BME280;4989;48.772;9.154;2023-02-28T08:39:24;98732.06;;;5.18;64.79
18850;BME280;4989;48.772;9.154;2023-02-28T08:44:27;98725.41;;;5.09;62.87
18850;BME280;4989;48.772;9.154;2023-02-28T08:49:29;98729.06;;;4.40;67.77
18850;BME280;4989;48.772;9.154;2023-02-28T08:54:32;98735.56;;;4.66;66.25
18850;BME280;4989;48.772;9.154;2023-02-28T08:59:35;98742.88;;;4.92;72.29
18850;BME280;4989;48.772;9.154;2023-02-28T09:04:37;98744.81;;;5.25;67.00
18850;BME280;4989;48.772;9.154;2023-02-28T09:09:39;98746.38;;;5.26;71.34
18850;BME280;4989;48.772;9.154;2023-02-28T09:14:55;98742.28;;;5.05;63.69
18850;BME280;4989;48.772;9.154;2023-02-28T09:19:57;98747.16;;;4.96;68.45
18850;BME280;4989;48.772;9.154;2023-02-28T09:25:00;98740.25;;;5.29;63.05
18850;BME280;4989;48.772;9.154;2023-02-28T09:30:02;98743.00;;;5.66;68.95
18850;BME280;4989;48.772;9.154;2023-02-28T09:35:05;98750.22;;;5.25;69.86
18850;BME280;4989;48.772;9.154;2023-02-28T09:40:10;98750.69;;;5.68;70.22
18850;BME280;4989;48.772;9.154;2023-02-28T09:45:32;98754.22;;;5.72;65.86
18850;BME280;4989;48.772;9.154;2023-02-28T09:50:40;98755.00;;;5.72;56.39
18850;BME280;4989;48.772;9.154;2023-02-28T09:55:55;98756.84;;;5.65;57.39
18850;BME280;4989;48.772;9.154;2023-02-28T10:01:09;98764.59;;;5.70;62.08
18850;BME280;4989;48.772;9.154;2023-02-28T10:06:20;98757.50;;;5.55;62.02
18850;BME280;4989;48.772;9.154;2023-02-28T10:11:27;98763.41;;;6.05;68.43
18850;BME280;4989;48.772;9.154;2023-02-28T10:16:43;98764.81;;;5.91;67.99
18850;BME280;4989;48.772;9.154;2023-02-28T10:22:26;98777.59;;;5.94;58.12
18850;BME280;4989;48.772;9.154;2023-02-28T10:27:32;98782.66;;;6.00;56.75
18850;BME280;4989;48.772;9.154;2023-02-28T10:32:37;98784.84;;;5.57;55.90
18850;BME280;4989;48.772;9.154;2023-02-28T10:37:44;98776.19;;;5.40;54.54
18850;BME280;4989;48.772;9.154;2023-02-28T10:48:39;98763.72;;;6.40;67.46
18850;BME280;4989;48.772;9.154;2023-02-28T10:53:52;98762.50;;;6.82;62.06
18850;BME280;4989;48.772;9.154;2023-02-28T11:04:19;98764.72;;;7.36;59.21
18850;BME280;4989;48.772;9.154;2023-02-28T11:09:28;98770.97;;;7.57;55.64
18850;BME280;4989;48.772;9.154;2023-02-28T11:14:49;98770.72;;;8.59;53.37
18850;BME280;4989;48.772;9.154;2023-02-28T11:19:58;98755.06;;;10.08;45.09
18850;BME280;4989;48.772;9.154;2023-02-28T11:25:06;98751.25;;;12.42;41.69
18850;BME280;4989;48.772;9.154;2023-02-28T11:35:38;98760.97;;;16.61;33.63
18850;BME280;4989;48.772;9.154;2023-02-28T11:46:20;98744.75;;;16.41;32.62
18850;BME280;4989;48.772;9.154;2023-02-28T11:52:04;98741.09;;;12.90;37.92
18850;BME280;4989;48.772;9.154;2023-02-28T11:57:32;98741.25;;;13.22;37.03
18850;BME280;4989;48.772;9.154;2023-02-28T12:08:20;98728.00;;;14.62;35.37
18850;BME280;4989;48.772;9.154;2023-02-28T12:19:27;98720.31;;;12.05;39.36
18850;BME280;4989;48.772;9.154;2023-02-28T12:24:55;98717.41;;;12.63;37.60
18850;BME280;4989;48.772;9.154;2023-02-28T12:30:19;98714.69;;;12.40;38.43
18850;BME280;4989;48.772;9.154;2023-02-28T12:35:57;98718.56;;;11.61;39.62
18850;BME280;4989;48.772;9.154;2023-02-28T12:41:12;98702.59;;;13.04;39.87
18850;BME280;4989;48.772;9.154;2023-02-28T12:46:45;98706.53;;;13.03;37.95
18850;BME280;4989;48.772;9.154;2023-02-28T12:51:52;98691.44;;;12.55;37.67
18850;BME280;4989;48.772;9.154;2023-02-28T12:57:43;98688.66;;;14.40;35.57
18850;BME280;4989;48.772;9.154;2023-02-28T13:13:45;98680.94;;;12.97;39.24
18850;BME280;4989;48.772;9.154;2023-02-28T13:18:48;98678.69;;;12.92;41.08
18850;BME280;4989;48.772;9.154;2023-02-28T13:34:17;98670.31;;;11.04;46.08
18850;BME280;4989;48.772;9.154;2023-02-28T13:50:27;98673.63;;;12.70;42.98
18850;BME280;4989;48.772;9.154;2023-02-28T13:55:53;98677.78;;;14.07;42.27
18850;BME280;4989;48.772;9.154;2023-02-28T14:01:26;98677.91;;;17.58;35.05
18850;BME280;4989;48.772;9.154;2023-02-28T14:06:34;98667.72;;;19.09;32.73
18850;BME280;4989;48.772;9.154;2023-02-28T14:11:41;98668.06;;;18.93;31.14
18850;BME280;4989;48.772;9.154;2023-02-28T14:16:47;98664.78;;;16.65;33.57
18850;BME280;4989;48.772;9.154;2023-02-28T14:38:47;98673.91;;;10.63;46.86
18850;BME280;4989;48.772;9.154;2023-02-28T14:44:01;98661.25;;;10.45;48.30
18850;BME280;4989;48.772;9.154;2023-02-28T14:49:15;98674.94;;;10.38;46.90
18850;BME280;4989;48.772;9.154;2023-02-28T14:54:21;98671.94;;;9.70;48.66
18850;BME280;4989;48.772;9.154;2023-02-28T14:59:28;98673.66;;;9.42;45.83
18850;BME280;4989;48.772;9.154;2023-02-28T15:04:31;98675.25;;;9.29;46.86
18850;BME280;4989;48.772;9.154;2023-02-28T15:09:35;98686.84;;;9.40;52.63
18850;BME280;4989;48.772;9.154;2023-02-28T15:14:38;98682.22;;;9.33;51.62
18850;BME280;4989;48.772;9.154;2023-02-28T15:19:47;98684.09;;;9.47;56.38
18850;BME280;4989;48.772;9.154;2023-02-28T15:24:52;98679.34;;;9.62;49.65
18850;BME280;4989;48.772;9.154;2023-02-28T15:29:58;98679.81;;;9.53;51.37
18850;BME280;4989;48.772;9.154;2023-02-28T15:40:32;98685.69;;;9.37;52.80
18850;BME280;4989;48.772;9.154;2023-02-28T15:45:51;98688.91;;;9.07;50.50
18850;BME280;4989;48.772;9.154;2023-02-28T15:56:53;98686.28;;;8.93;51.50
18850;BME280;4989;48.772;9.154;2023-02-28T16:07:15;98687.06;;;8.83;51.48
18850;BME280;4989;48.772;9.154;2023-02-28T16:12:18;98688.59;;;8.91;53.45
18850;BME280;4989;48.772;9.154;2023-02-28T16:17:24;98700.28;;;8.66;53.93
18850;BME280;4989;48.772;9.154;2023-02-28T16:22:27;98703.34;;;8.79;54.23
18850;BME280;4989;48.772;9.154;2023-02-28T16:27:36;98699.91;;;8.64;57.37
18850;BME280;4989;48.772;9.154;2023-02-28T16:32:40;98706.91;;;8.51;57.71
18850;BME280;4989;48.772;9.154;2023-02-28T16:37:46;98706.13;;;8.54;56.88
18850;BME280;4989;48.772;9.154;2023-02-28T16:42:51;98705.72;;;8.02;51.19
18850;BME280;4989;48.772;9.154;2023-02-28T16:47:55;98713.47;;;8.21;57.87
18850;BME280;4989;48.772;9.154;2023-02-28T16:52:57;98720.41;;;8.15;56.78
18850;BME280;4989;48.772;9.154;2023-02-28T16:58:02;98725.84;;;8.44;55.45
18850;BME280;4989;48.772;9.154;2023-02-28T17:03:04;98721.19;;;8.34;57.69
18850;BME280;4989;48.772;9.154;2023-02-28T17:08:09;98727.38;;;8.31;62.26
18850;BME280;4989;48.772;9.154;2023-02-28T17:13:12;98731.63;;;8.28;56.86
18850;BME280;4989;48.772;9.154;2023-02-28T17:18:18;98735.13;;;8.29;58.18
18850;BME280;4989;48.772;9.154;2023-02-28T17:23:21;98741.28;;;8.08;54.78
18850;BME280;4989;48.772;9.154;2023-02-28T17:28:24;98752.88;;;7.97;58.62
18850;BME280;4989;48.772;9.154;2023-02-28T17:33:26;98749.00;;;7.88;56.64
18850;BME280;4989;48.772;9.154;2023-02-28T17:38:28;98763.72;;;8.01;53.88
18850;BME280;4989;48.772;9.154;2023-02-28T17:43:30;98762.53;;;7.88;58.12
18850;BME280;4989;48.772;9.154;2023-02-28T17:48:33;98767.53;;;7.75;60.78
18850;BME280;4989;48.772;9.154;2023-02-28T17:53:37;98779.94;;;7.90;63.53
18850;BME280;4989;48.772;9.154;2023-02-28T17:58:39;98773.00;;;8.11;61.80
18850;BME280;4989;48.772;9.154;2023-02-28T18:03:41;98777.66;;;7.99;61.10
18850;BME280;4989;48.772;9.154;2023-02-28T18:08:43;98776.06;;;7.91;59.30
18850;BME280;4989;48.772;9.154;2023-02-28T18:13:48;98776.78;;;7.63;65.74
18850;BME280;4989;48.772;9.154;2023-02-28T18:18:51;98768.63;;;7.49;57.71
18850;BME280;4989;48.772;9.154;2023-02-28T18:23:53;98778.31;;;7.57;60.15
18850;BME280;4989;48.772;9.154;2023-02-28T18:28:55;98768.28;;;7.68;59.61
18850;BME280;4989;48.772;9.154;2023-02-28T18:33:58;98781.38;;;7.59;57.41
18850;BME280;4989;48.772;9.154;2023-02-28T18:39:00;98779.84;;;7.58;64.30
18850;BME280;4989;48.772;9.154;2023-02-28T18:44:03;98777.91;;;7.55;64.92
18850;BME280;4989;48.772;9.154;2023-02-28T18:49:20;98772.91;;;7.64;70.41
18850;BME280;4989;48.772;9.154;2023-02-28T18:54:22;98777.50;;;7.53;66.98
18850;BME280;4989;48.772;9.154;2023-02-28T18:59:25;98772.91;;;7.57;64.74
18850;BME280;4989;48.772;9.154;2023-02-28T19:04:27;98766.69;;;7.53;66.19
18850;BME280;4989;48.772;9.154;2023-02-28T19:09:29;98765.91;;;7.56;62.70
18850;BME280;4989;48.772;9.154;2023-02-28T19:14:31;98767.38;;;7.28;63.53
18850;BME280;4989;48.772;9.154;2023-02-28T19:19:33;98767.41;;;7.36;68.50
18850;BME280;4989;48.772;9.154;2023-02-28T19:24:35;98774.44;;;7.51;63.59
18850;BME280;4989;48.772;9.154;2023-02-28T19:29:37;98779.75;;;7.29;66.81
18850;BME280;4989;48.772;9.154;2023-02-28T19:34:39;98778.94;;;7.29;63.29
18850;BME280;4989;48.772;9.154;2023-02-28T19:39:43;98777.38;;;7.17;61.78
18850;BME280;4989;48.772;9.154;2023-02-28T19:44:45;98771.19;;;7.20;60.87
18850;BME280;4989;48.772;9.154;2023-02-28T19:49:47;98777.75;;;7.19;69.18
18850;BME280;4989;48.772;9.154;2023-02-28T19:54:50;98775.81;;;7.16;58.43
18850;BME280;4989;48.772;9.154;2023-02-28T19:59:52;98784.84;;;6.79;69.08
18850;BME280;4989;48.772;9.154;2023-02-28T20:04:54;98781.19;;;7.09;70.82
18850;BME280;4989;48.772;9.154;2023-02-28T20:10:01;98779.59;;;7.01;66.57
18850;BME280;4989;48.772;9.154;2023-02-28T20:15:03;98776.41;;;6.84;70.88
18850;BME280;4989;48.772;9.154;2023-02-28T20:20:06;98778.59;;;6.68;65.69
18850;BME280;4989;48.772;9.154;2023-02-28T20:25:12;98775.59;;;6.80;64.95
18850;BME280;4989;48.772;9.154;2023-02-28T20:30:14;98771.03;;;6.92;75.45
18850;BME280;4989;48.772;9.154;2023-02-28T20:35:16;98774.84;;;6.83;71.24
18850;BME280;4989;48.772;9.154;2023-02-28T20:40:18;98773.88;;;6.54;64.44
18850;BME280;4989;48.772;9.154;2023-02-28T20:45:21;98773.13;;;6.09;65.76
18850;BME280;4989;48.772;9.154;2023-02-28T20:50:25;98777.56;;;5.57;69.77
18850;BME280;4989;48.772;9.154;2023-02-28T20:55:27;98768.00;;;5.30;69.98
18850;BME280;4989;48.772;9.154;2023-02-28T21:00:30;98768.66;;;5.57;71.13
18850;BME280;4989;48.772;9.154;2023-02-28T21:05:32;98774.97;;;5.34;67.13
18850;BME280;4989;48.772;9.154;2023-02-28T21:10:34;98780.66;;;4.99;63.35
18850;BME280;4989;48.772;9.154;2023-02-28T21:15:37;98785.06;;;5.11;75.40
18850;BME280;4989;48.772;9.154;2023-02-28T21:20:40;98788.28;;;4.93;66.52
18850;BME280;4989;48.772;9.154;2023-02-28T21:25:42;98781.25;;;4.85;73.29
18850;BME280;4989;48.772;9.154;2023-02-28T21:30:44;98776.13;;;5.03;71.06
18850;BME280;4989;48.772;9.154;2023-02-28T21:35:46;98776.38;;;4.68;66.62
18850;BME280;4989;48.772;9.154;2023-02-28T21:40:48;98772.59;;;4.72;72.43
18850;BME280;4989;48.772;9.154;2023-02-28T21:45:52;98774.50;;;4.72;73.19
18850;BME280;4989;48.772;9.154;2023-02-28T21:50:56;98773.47;;;4.80;74.11
18850;BME280;4989;48.772;9.154;2023-02-28T21:56:13;98762.41;;;5.15;66.84
18850;BME280;4989;48.772;9.154;2023-02-28T22:01:21;98772.13;;;4.93;64.70
18850;BME280;4989;48.772;9.154;2023-02-28T22:06:44;98768.00;;;4.73;71.97
18850;BME280;4989;48.772;9.154;2023-02-28T22:11:46;98761.88;;;4.76;78.77
18850;BME280;4989;48.772;9.154;2023-02-28T22:16:48;98758.56;;;4.86;65.83
18850;BME280;4989;48.772;9.154;2023-02-28T22:21:54;98759.59;;;4.78;68.46
18850;BME280;4989;48.772;9.154;2023-02-28T22:26:56;98760.06;;;4.83;69.19
18850;BME280;4989;48.772;9.154;2023-02-28T22:31:59;98757.53;;;4.94;68.99
18850;BME280;4989;48.772;9.154;2023-02-28T22:37:01;98761.66;;;5.15;71.22
18850;BME280;4989;48.772;9.154;2023-02-28T22:42:03;98761.03;;;5.28;74.46
18850;BME280;4989;48.772;9.154;2023-02-28T22:47:05;98766.84;;;5.00;76.36
18850;BME280;4989;48.772;9.154;2023-02-28T22:52:08;98772.59;;;4.46;67.03
18850;BME280;4989;48.772;9.154;2023-02-28T22:57:10;98762.63;;;3.81;67.91
18850;BME280;4989;48.772;9.154;2023-02-28T23:02:13;98761.75;;;3.54;68.89
18850;BME280;4989;48.772;9.154;2023-02-28T23:07:15;98767.78;;;3.66;69.29
18850;BME280;4989;48.772;9.154;2023-02-28T23:12:18;98760.63;;;3.55;73.24
18850;BME280;4989;48.772;9.154;2023-02-28T23:17:20;98758.69;;;3.75;74.31
18850;BME280;4989;48.772;9.154;2023-02-28T23:22:22;98761.13;;;3.41;70.98
18850;BME280;4989;48.772;9.154;2023-02-28T23:27:25;98756.88;;;3.40;71.90
18850;BME280;4989;48.772;9.154;2023-02-28T23:32:27;98765.91;;;4.36;86.96
18850;BME280;4989;48.772;9.154;2023-02-28T23:37:29;98764.22;;;3.82;75.07
18850;BME280;4989;48.772;9.154;2023-02-28T23:42:34;98761.78;;;2.99;76.92
18850;BME280;4989;48.772;9.154;2023-02-28T23:47:36;98765.72;;;3.40;77.86
18850;BME280;4989;48.772;9.154;2023-02-28T23:52:38;98762.00;;;3.45;81.40
18850;BME280;4989;48.772;9.154;2023-02-28T23:57:41;98749.75;;;2.73;71.01
